createdAt,value
2023-01-19T00:01:44.623Z,20.13
2023-01-19T00:04:13.074Z,18.00
2023-01-19T00:06:42.837Z,17.70
2023-01-19T00:09:11.204Z,19.53
2023-01-19T00:11:39.977Z,19.60
2023-01-19T00:14:08.407Z,19.33
2023-01-19T00:16:37.559Z,19.70
2023-01-19T00:19:06.139Z,20.00
2023-01-19T00:21:34.630Z,20.13
2023-01-19T00:24:04.501Z,24.20
2023-01-19T00:26:32.842Z,21.00
2023-01-19T00:29:01.234Z,20.07
2023-01-19T00:31:30.146Z,21.17
2023-01-19T00:33:58.771Z,21.63
2023-01-19T00:36:27.215Z,20.90
2023-01-19T00:38:55.630Z,21.50
2023-01-19T00:41:39.955Z,21.23
2023-01-19T00:44:08.344Z,21.47
2023-01-19T00:46:36.689Z,22.27
2023-01-19T00:49:05.566Z,20.60
2023-01-19T00:51:34.047Z,22.53
2023-01-19T00:54:05.060Z,21.43
2023-01-19T00:56:36.166Z,20.97
2023-01-19T00:59:05.218Z,22.17
2023-01-19T01:01:45.878Z,21.80
2023-01-19T01:04:14.845Z,20.63
2023-01-19T01:06:43.232Z,22.67
2023-01-19T01:09:12.920Z,21.37
2023-01-19T01:11:43.882Z,22.53
2023-01-19T01:14:14.084Z,21.70
2023-01-19T01:16:42.811Z,21.77
2023-01-19T01:19:11.397Z,21.93
2023-01-19T01:21:40.054Z,21.63
2023-01-19T01:24:09.906Z,21.03
2023-01-19T01:26:38.275Z,23.23
2023-01-19T01:29:08.725Z,21.67
2023-01-19T01:31:37.332Z,19.97
2023-01-19T01:34:05.816Z,21.37
2023-01-19T01:36:34.125Z,20.73
2023-01-19T01:39:02.779Z,20.53
2023-01-19T01:41:31.347Z,22.97
2023-01-19T01:44:01.864Z,21.30
2023-01-19T01:46:33.353Z,20.57
2023-01-19T01:49:08.787Z,21.50
2023-01-19T01:51:42.564Z,21.07
2023-01-19T01:54:18.551Z,19.73
2023-01-19T01:56:50.298Z,22.03
2023-01-19T01:59:26.841Z,21.63
2023-01-19T02:02:16.864Z,20.40
2023-01-19T02:04:50.200Z,20.47
2023-01-19T02:07:44.324Z,20.43
2023-01-19T02:10:30.233Z,21.07
2023-01-19T02:13:17.353Z,21.77
2023-01-19T02:15:45.858Z,20.60
2023-01-19T02:18:16.015Z,20.60
2023-01-19T02:20:54.780Z,20.90
2023-01-19T02:23:38.286Z,19.50
2023-01-19T02:26:09.739Z,19.40
2023-01-19T02:28:42.295Z,19.90
2023-01-19T02:31:11.782Z,19.67
2023-01-19T02:33:40.283Z,19.50
2023-01-19T02:36:11.768Z,19.30
2023-01-19T02:38:45.130Z,20.57
2023-01-19T02:41:19.085Z,19.67
2023-01-19T02:43:49.115Z,20.93
2023-01-19T02:46:18.218Z,20.80
2023-01-19T02:48:48.921Z,20.60
2023-01-19T02:51:19.488Z,20.07
2023-01-19T02:54:34.957Z,20.43
2023-01-19T02:57:24.823Z,20.87
2023-01-19T03:00:16.014Z,20.67
2023-01-19T03:02:59.831Z,20.43
2023-01-19T03:05:53.853Z,20.57
2023-01-19T03:08:35.488Z,20.80
2023-01-19T03:11:07.472Z,20.47
2023-01-19T03:13:45.952Z,20.90
2023-01-19T03:16:22.818Z,19.57
2023-01-19T03:18:56.602Z,20.90
2023-01-19T03:21:28.844Z,21.10
2023-01-19T03:24:03.225Z,21.67
2023-01-19T03:26:39.829Z,20.23
2023-01-19T03:29:14.205Z,20.47
2023-01-19T03:31:46.146Z,20.17
2023-01-19T03:34:17.145Z,21.53
2023-01-19T03:36:52.381Z,20.83
2023-01-19T03:39:24.948Z,20.60
2023-01-19T03:41:58.574Z,20.10
2023-01-19T03:44:30.361Z,20.10
2023-01-19T03:47:00.325Z,20.00
2023-01-19T03:49:31.607Z,20.37
2023-01-19T03:52:00.657Z,20.30
2023-01-19T03:54:29.820Z,19.87
2023-01-19T03:56:59.638Z,19.50
2023-01-19T03:59:27.940Z,19.80
2023-01-19T04:01:56.364Z,19.83
2023-01-19T04:04:25.643Z,19.97
2023-01-19T04:06:54.156Z,20.97
2023-01-19T04:09:22.583Z,19.83
2023-01-19T04:11:51.493Z,21.60
2023-01-19T04:14:21.672Z,22.03
2023-01-19T04:16:50.192Z,21.53
2023-01-19T04:19:18.552Z,19.93
2023-01-19T04:21:48.917Z,22.20
2023-01-19T04:24:17.252Z,20.63
2023-01-19T04:26:45.648Z,20.63
2023-01-19T04:29:14.518Z,20.60
2023-01-19T04:31:44.538Z,20.30
2023-01-19T04:34:12.934Z,19.67
2023-01-19T04:36:41.540Z,21.33
2023-01-19T04:39:10.471Z,19.50
2023-01-19T04:41:38.987Z,18.40
2023-01-19T04:44:07.700Z,18.70
2023-01-19T04:46:36.272Z,17.93
2023-01-19T04:49:06.035Z,17.40
2023-01-19T04:51:34.441Z,19.40
2023-01-19T04:54:02.813Z,20.03
2023-01-19T04:56:31.527Z,19.03
2023-01-19T04:58:59.863Z,18.87
2023-01-19T05:01:28.970Z,19.50
2023-01-19T05:04:01.153Z,19.20
2023-01-19T05:06:30.920Z,18.03
2023-01-19T05:08:59.409Z,17.90
2023-01-19T05:11:30.456Z,18.20
2023-01-19T05:13:58.816Z,18.27
2023-01-19T05:16:27.241Z,17.33
2023-01-19T05:18:55.659Z,17.23
2023-01-19T05:21:24.000Z,16.80
2023-01-19T05:23:53.865Z,16.43
2023-01-19T05:26:22.225Z,14.70
2023-01-19T05:28:51.014Z,16.30
2023-01-19T05:31:19.737Z,17.93
2023-01-19T05:33:48.298Z,16.23
2023-01-19T05:36:16.670Z,17.77
2023-01-19T05:38:45.016Z,15.60
2023-01-19T05:41:15.281Z,17.03
2023-01-19T05:43:43.639Z,16.93
2023-01-19T05:46:12.049Z,17.97
2023-01-19T05:48:40.688Z,16.37
2023-01-19T05:51:09.225Z,16.27
2023-01-19T05:53:37.585Z,16.20
2023-01-19T05:56:09.394Z,14.97
2023-01-19T05:58:40.448Z,17.07
2023-01-19T06:01:10.897Z,15.73
2023-01-19T06:03:39.947Z,16.83
2023-01-19T06:06:08.874Z,15.23
2023-01-19T06:08:37.495Z,15.43
2023-01-19T06:11:08.489Z,15.83
2023-01-19T06:13:41.354Z,14.70
2023-01-19T06:16:11.792Z,15.90
2023-01-19T06:18:40.645Z,15.03
2023-01-19T06:21:14.468Z,14.87
2023-01-19T06:23:43.173Z,14.53
2023-01-19T06:26:11.692Z,15.70
2023-01-19T06:28:41.412Z,14.87
2023-01-19T06:31:09.927Z,16.07
2023-01-19T06:33:38.528Z,15.33
2023-01-19T06:36:08.039Z,14.40
2023-01-19T06:38:36.548Z,15.13
2023-01-19T06:41:05.107Z,14.97
2023-01-19T06:43:33.566Z,15.07
2023-01-19T06:46:04.222Z,14.67
2023-01-19T06:48:32.692Z,13.90
2023-01-19T06:51:01.091Z,14.10
2023-01-19T06:53:30.374Z,14.23
2023-01-19T06:56:03.956Z,14.63
2023-01-19T06:58:34.876Z,13.93
2023-01-19T07:01:06.573Z,15.57
2023-01-19T07:03:36.783Z,13.77
2023-01-19T07:06:07.658Z,13.07
2023-01-19T07:08:37.790Z,12.60
2023-01-19T07:11:25.279Z,12.63
2023-01-19T07:13:57.158Z,13.43
2023-01-19T07:16:27.082Z,12.47
2023-01-19T07:18:55.669Z,11.80
2023-01-19T07:21:24.306Z,12.80
2023-01-19T07:23:54.841Z,12.47
2023-01-19T07:26:25.318Z,13.37
2023-01-19T07:28:53.954Z,13.00
2023-01-19T07:31:22.623Z,12.30
2023-01-19T07:33:52.542Z,12.83
2023-01-19T07:36:21.036Z,11.87
2023-01-19T07:38:49.402Z,10.27
2023-01-19T07:41:18.331Z,10.87
2023-01-19T07:43:46.768Z,11.23
2023-01-19T07:46:15.168Z,11.10
2023-01-19T07:48:44.553Z,11.37
2023-01-19T07:51:18.089Z,10.40
2023-01-19T07:53:46.912Z,9.63
2023-01-19T07:56:15.325Z,9.60
2023-01-19T07:58:43.914Z,10.13
2023-01-19T08:01:14.506Z,11.33
2023-01-19T08:03:43.107Z,11.00
2023-01-19T08:06:23.613Z,12.10
2023-01-19T08:08:52.533Z,12.37
2023-01-19T08:11:21.390Z,12.37
2023-01-19T08:13:49.767Z,11.50
2023-01-19T08:16:18.284Z,12.33
2023-01-19T08:18:47.172Z,12.00
2023-01-19T08:21:17.073Z,11.53
2023-01-19T08:23:45.979Z,11.07
2023-01-19T08:26:27.414Z,11.60
2023-01-19T08:28:57.715Z,12.10
2023-01-19T08:31:26.824Z,13.07
2023-01-19T08:33:55.600Z,12.53
2023-01-19T08:36:25.609Z,10.90
2023-01-19T08:38:54.419Z,11.80
2023-01-19T08:41:22.964Z,11.43
2023-01-19T08:43:51.825Z,11.23
2023-01-19T08:46:22.047Z,11.50
2023-01-19T08:48:51.020Z,11.03
2023-01-19T08:51:19.841Z,11.50
2023-01-19T08:53:49.794Z,11.47
2023-01-19T08:56:20.583Z,12.57
2023-01-19T08:58:59.471Z,12.17
2023-01-19T09:01:37.139Z,12.13
2023-01-19T09:04:07.005Z,12.67
2023-01-19T09:06:35.635Z,12.90
2023-01-19T09:09:05.869Z,12.17
2023-01-19T09:11:35.160Z,13.60
2023-01-19T09:14:05.764Z,13.17
2023-01-19T09:16:34.468Z,13.50
2023-01-19T09:19:03.105Z,12.47
2023-01-19T09:21:31.555Z,12.37
2023-01-19T09:24:00.039Z,12.40
2023-01-19T09:26:31.634Z,12.47
2023-01-19T09:29:01.688Z,12.57
2023-01-19T09:31:30.185Z,12.73
2023-01-19T09:33:58.745Z,13.80
2023-01-19T09:36:27.172Z,11.97
2023-01-19T09:38:55.630Z,11.97
2023-01-19T09:41:26.149Z,11.40
2023-01-19T09:44:00.661Z,12.50
2023-01-19T09:46:36.248Z,12.33
2023-01-19T09:49:12.026Z,12.73
2023-01-19T09:51:46.135Z,13.63
2023-01-19T09:54:16.994Z,13.40
2023-01-19T09:56:46.474Z,13.10
2023-01-19T09:59:26.413Z,12.83
2023-01-19T10:02:15.995Z,13.70
2023-01-19T10:04:51.104Z,14.40
2023-01-19T10:07:34.216Z,14.30
2023-01-19T10:10:17.259Z,15.67
2023-01-19T10:13:05.337Z,16.13
2023-01-19T10:15:47.291Z,16.63
2023-01-19T10:18:21.220Z,17.67
2023-01-19T10:20:54.465Z,17.43
2023-01-19T10:23:42.699Z,17.97
2023-01-19T10:26:17.859Z,17.27
2023-01-19T10:28:50.879Z,17.50
2023-01-19T10:31:25.134Z,18.93
2023-01-19T10:33:54.612Z,18.10
2023-01-19T10:36:28.907Z,18.17
2023-01-19T10:38:57.310Z,18.23
2023-01-19T10:41:32.805Z,17.60
2023-01-19T10:44:05.468Z,16.63
2023-01-19T10:46:43.875Z,16.60
2023-01-19T10:49:27.614Z,16.10
2023-01-19T10:51:57.501Z,16.13
2023-01-19T10:54:27.479Z,17.40
2023-01-19T10:56:59.025Z,15.90
2023-01-19T10:59:37.381Z,14.50
2023-01-19T11:02:21.458Z,15.87
2023-01-19T11:04:53.192Z,14.47
2023-01-19T11:07:23.967Z,15.70
2023-01-19T11:10:10.982Z,16.53
2023-01-19T11:12:43.435Z,15.10
2023-01-19T11:15:18.069Z,13.87
2023-01-19T11:17:48.673Z,14.60
2023-01-19T11:20:23.919Z,13.90
2023-01-19T11:23:07.325Z,14.17
2023-01-19T11:25:37.769Z,13.30
2023-01-19T11:28:07.212Z,12.90
2023-01-19T11:30:37.176Z,14.50
2023-01-19T11:33:07.852Z,14.33
2023-01-19T11:35:39.928Z,13.97
2023-01-19T11:38:25.875Z,13.33
2023-01-19T11:40:58.133Z,14.13
2023-01-19T11:43:47.473Z,14.03
2023-01-19T11:46:17.954Z,14.67
2023-01-19T11:48:56.692Z,15.13
2023-01-19T11:51:29.684Z,14.33
2023-01-19T11:53:58.221Z,14.23
2023-01-19T11:56:30.302Z,14.67
2023-01-19T11:58:59.033Z,15.67
2023-01-19T12:01:32.558Z,15.67
2023-01-19T12:04:08.461Z,16.47
2023-01-19T12:06:40.956Z,15.73
2023-01-19T12:09:16.315Z,15.20
2023-01-19T12:11:50.079Z,14.63
2023-01-19T12:14:26.804Z,13.40
2023-01-19T12:16:59.370Z,14.33
2023-01-19T12:19:43.872Z,16.13
2023-01-19T12:22:17.357Z,15.23
2023-01-19T12:24:56.251Z,16.03
2023-01-19T12:27:39.483Z,13.70
2023-01-19T12:30:18.112Z,14.53
2023-01-19T12:32:46.679Z,15.23
2023-01-19T12:35:57.640Z,16.00
2023-01-19T12:38:41.268Z,15.20
2023-01-19T12:41:30.025Z,15.87
2023-01-19T12:44:22.690Z,16.63
2023-01-19T12:46:55.711Z,16.00
2023-01-19T12:49:31.744Z,16.40
2023-01-19T12:52:30.649Z,16.57
2023-01-19T12:55:05.161Z,15.73
2023-01-19T12:57:40.195Z,16.97
2023-01-19T13:00:43.396Z,16.47
2023-01-19T13:03:58.881Z,16.77
2023-01-19T13:07:10.315Z,16.03
2023-01-19T13:09:42.736Z,16.10
2023-01-19T13:12:29.072Z,15.37
2023-01-19T13:15:29.978Z,16.03
2023-01-19T13:17:59.042Z,14.90
2023-01-19T13:20:33.184Z,15.03
2023-01-19T13:23:25.199Z,15.33
2023-01-19T13:26:04.942Z,15.43
2023-01-19T13:28:43.957Z,15.80
2023-01-19T13:31:14.595Z,17.00
2023-01-19T13:33:54.041Z,17.83
2023-01-19T13:36:29.277Z,18.10
2023-01-19T13:39:00.405Z,17.97
2023-01-19T13:41:34.133Z,17.33
2023-01-19T13:44:08.376Z,17.60
2023-01-19T13:46:39.501Z,17.30
2023-01-19T13:49:20.101Z,16.83
2023-01-19T13:52:05.046Z,17.00
2023-01-19T13:54:33.748Z,17.73
2023-01-19T13:57:03.647Z,17.03
2023-01-19T13:59:32.258Z,16.83
2023-01-19T14:02:13.692Z,16.33
2023-01-19T14:04:44.010Z,16.47
2023-01-19T14:07:26.345Z,18.67
2023-01-19T14:10:06.115Z,18.43
2023-01-19T14:12:43.542Z,18.47
2023-01-19T14:15:17.053Z,16.27
2023-01-19T14:17:45.455Z,16.30
2023-01-19T14:20:29.723Z,15.47
2023-01-19T14:22:58.508Z,14.60
2023-01-19T14:25:32.625Z,13.67
2023-01-19T14:28:31.049Z,14.23
2023-01-19T14:31:02.647Z,13.50
2023-01-19T14:33:46.158Z,13.40
2023-01-19T14:36:30.731Z,14.53
2023-01-19T14:39:02.336Z,14.60
2023-01-19T14:41:39.094Z,14.63
2023-01-19T14:44:12.840Z,15.33
2023-01-19T14:46:47.948Z,15.73
2023-01-19T14:49:22.798Z,16.17
2023-01-19T14:51:51.959Z,15.33
2023-01-19T14:54:30.704Z,16.30
2023-01-19T14:56:59.084Z,16.77
2023-01-19T14:59:31.843Z,16.97
2023-01-19T15:02:01.013Z,16.63
2023-01-19T15:04:29.573Z,17.80
2023-01-19T15:06:58.323Z,16.90
2023-01-19T15:09:26.935Z,17.73
2023-01-19T15:11:55.532Z,17.50
2023-01-19T15:14:24.034Z,17.73
2023-01-19T15:16:53.920Z,17.70
2023-01-19T15:19:22.388Z,17.73
2023-01-19T15:21:50.756Z,16.70
2023-01-19T15:24:22.150Z,18.43
2023-01-19T15:26:50.554Z,17.90
2023-01-19T15:29:24.706Z,18.23
2023-01-19T15:31:54.877Z,18.20
2023-01-19T15:34:23.471Z,19.47
2023-01-19T15:36:51.847Z,18.77
2023-01-19T15:39:20.736Z,17.83
2023-01-19T15:41:49.120Z,18.47
2023-01-19T15:44:17.628Z,17.93
2023-01-19T15:46:46.865Z,15.60
2023-01-19T15:49:16.861Z,16.00
2023-01-19T15:51:45.656Z,15.87
2023-01-19T15:54:15.575Z,16.07
2023-01-19T15:56:44.005Z,15.50
2023-01-19T15:59:12.552Z,15.20
2023-01-19T16:01:42.409Z,15.03
2023-01-19T16:04:13.197Z,14.53
2023-01-19T16:06:43.032Z,12.33
2023-01-19T16:09:16.868Z,11.57
2023-01-19T16:11:45.717Z,12.13
2023-01-19T16:14:15.553Z,11.37
2023-01-19T16:16:46.322Z,10.97
2023-01-19T16:19:16.831Z,10.70
2023-01-19T16:21:46.679Z,11.57
2023-01-19T16:24:15.369Z,11.10
2023-01-19T16:26:44.143Z,10.27
2023-01-19T16:29:15.015Z,10.70
2023-01-19T16:31:46.723Z,11.27
2023-01-19T16:34:16.521Z,11.27
2023-01-19T16:36:46.424Z,11.83
2023-01-19T16:39:17.085Z,12.53
2023-01-19T16:41:46.890Z,11.67
2023-01-19T16:44:17.783Z,11.17
2023-01-19T16:46:49.758Z,11.50
2023-01-19T16:49:21.218Z,11.60
2023-01-19T16:51:52.885Z,11.20
2023-01-19T16:54:25.983Z,11.67
2023-01-19T16:56:56.008Z,11.63
2023-01-19T16:59:27.078Z,12.37
2023-01-19T17:01:56.071Z,14.53
2023-01-19T17:04:25.065Z,14.30
2023-01-19T17:06:55.516Z,13.10
2023-01-19T17:09:24.431Z,12.83
2023-01-19T17:11:53.462Z,11.70
2023-01-19T17:14:25.600Z,12.37
2023-01-19T17:16:54.022Z,11.87
2023-01-19T17:19:23.089Z,13.00
2023-01-19T17:21:51.715Z,12.03
2023-01-19T17:24:21.516Z,11.90
2023-01-19T17:26:50.027Z,11.57
2023-01-19T17:29:21.457Z,11.27
2023-01-19T17:31:52.251Z,11.33
2023-01-19T17:34:20.790Z,11.50
2023-01-19T17:36:52.464Z,11.13
2023-01-19T17:39:23.573Z,11.37
2023-01-19T17:41:52.053Z,11.63
2023-01-19T17:44:21.029Z,10.70
2023-01-19T17:46:49.414Z,11.00
2023-01-19T17:49:17.866Z,10.80
2023-01-19T17:51:46.427Z,10.20
2023-01-19T17:54:14.995Z,10.27
2023-01-19T17:56:47.899Z,9.83
2023-01-19T17:59:16.358Z,9.97
2023-01-19T18:01:46.468Z,11.17
2023-01-19T18:04:15.251Z,11.40
2023-01-19T18:06:44.147Z,12.17
2023-01-19T18:09:13.439Z,11.90
2023-01-19T18:11:42.841Z,13.23
2023-01-19T18:14:12.605Z,13.13
2023-01-19T18:16:41.169Z,12.73
2023-01-19T18:19:09.590Z,12.40
2023-01-19T18:21:38.182Z,12.03
2023-01-19T18:24:07.778Z,10.57
2023-01-19T18:26:37.686Z,10.33
2023-01-19T18:29:06.324Z,11.03
2023-01-19T18:31:36.260Z,10.43
2023-01-19T18:34:05.103Z,11.97
2023-01-19T18:36:34.249Z,11.70
2023-01-19T18:39:03.371Z,11.77
2023-01-19T18:41:31.967Z,12.40
2023-01-19T18:44:00.673Z,12.23
2023-01-19T18:46:30.600Z,11.50
2023-01-19T18:49:00.745Z,12.60
2023-01-19T18:51:29.301Z,12.83
2023-01-19T18:53:58.690Z,12.70
2023-01-19T18:56:27.646Z,13.70
2023-01-19T18:58:56.612Z,13.10
2023-01-19T19:01:27.537Z,13.70
2023-01-19T19:03:56.994Z,13.93
2023-01-19T19:06:29.007Z,14.57
2023-01-19T19:08:59.762Z,15.40
2023-01-19T19:11:29.387Z,15.53
2023-01-19T19:14:02.005Z,16.27
2023-01-19T19:16:35.090Z,16.23
2023-01-19T19:19:04.269Z,16.17
2023-01-19T19:21:34.523Z,16.00
2023-01-19T19:24:03.008Z,16.80
2023-01-19T19:26:32.437Z,16.90
2023-01-19T19:29:04.868Z,15.60
2023-01-19T19:31:33.742Z,15.93
2023-01-19T19:34:02.467Z,15.93
2023-01-19T19:36:33.659Z,16.70
2023-01-19T19:39:03.836Z,16.20
2023-01-19T19:41:33.349Z,16.63
2023-01-19T19:44:05.047Z,16.87
2023-01-19T19:46:35.313Z,17.50
2023-01-19T19:49:03.786Z,16.93
2023-01-19T19:51:32.156Z,17.50
2023-01-19T19:54:02.866Z,17.17
2023-01-19T19:56:34.384Z,16.03
2023-01-19T19:59:02.861Z,17.27
2023-01-19T20:01:34.011Z,17.47
2023-01-19T20:04:08.179Z,16.93
2023-01-19T20:06:39.935Z,17.10
2023-01-19T20:09:12.826Z,16.17
2023-01-19T20:11:42.852Z,16.70
2023-01-19T20:14:14.435Z,16.77
2023-01-19T20:16:43.634Z,16.53
2023-01-19T20:19:12.767Z,16.57
2023-01-19T20:21:43.312Z,16.87
2023-01-19T20:24:16.429Z,15.90
2023-01-19T20:26:47.511Z,17.03
2023-01-19T20:29:16.522Z,15.77
2023-01-19T20:31:47.554Z,16.50
2023-01-19T20:34:20.080Z,18.57
2023-01-19T20:36:50.323Z,17.27
2023-01-19T20:39:21.171Z,17.77
2023-01-19T20:41:51.354Z,17.93
2023-01-19T20:44:23.592Z,17.60
2023-01-19T20:46:52.748Z,17.07
2023-01-19T20:49:21.475Z,16.67
2023-01-19T20:51:52.079Z,19.37
2023-01-19T20:54:26.356Z,17.73
2023-01-19T20:56:55.401Z,20.37
2023-01-19T20:59:24.610Z,18.17
2023-01-19T21:01:53.524Z,19.37
2023-01-19T21:04:22.508Z,18.83
2023-01-19T21:06:50.881Z,18.63
2023-01-19T21:09:19.678Z,18.47
2023-01-19T21:11:49.689Z,19.60
2023-01-19T21:14:18.031Z,18.53
2023-01-19T21:16:46.556Z,19.27
2023-01-19T21:19:15.044Z,19.57
2023-01-19T21:21:43.853Z,19.33
2023-01-19T21:24:12.726Z,18.93
2023-01-19T21:26:42.889Z,19.20
2023-01-19T21:29:14.083Z,19.50
2023-01-19T21:31:43.090Z,19.10
2023-01-19T21:34:11.681Z,19.90
2023-01-19T21:36:40.102Z,18.30
2023-01-19T21:39:09.174Z,19.90
2023-01-19T21:41:40.833Z,20.47
2023-01-19T21:44:13.817Z,19.60
2023-01-19T21:46:42.734Z,19.83
2023-01-19T21:49:18.500Z,19.13
2023-01-19T21:51:48.112Z,19.37
2023-01-19T21:54:16.918Z,17.83
2023-01-19T21:56:45.418Z,18.43
2023-01-19T21:59:16.768Z,17.40
2023-01-19T22:01:48.731Z,19.30
2023-01-19T22:04:19.569Z,18.93
2023-01-19T22:06:48.455Z,19.13
2023-01-19T22:09:17.073Z,18.10
2023-01-19T22:11:45.536Z,19.60
2023-01-19T22:14:15.273Z,18.37
2023-01-19T22:16:43.843Z,18.57
2023-01-19T22:19:14.490Z,19.70
2023-01-19T22:21:42.954Z,19.67
2023-01-19T22:24:12.899Z,19.10
2023-01-19T22:26:41.436Z,18.30
2023-01-19T22:29:11.237Z,18.57
2023-01-19T22:31:41.549Z,18.40
2023-01-19T22:34:10.908Z,18.40
2023-01-19T22:36:42.488Z,17.87
2023-01-19T22:39:12.913Z,16.80
2023-01-19T22:41:44.047Z,18.63
2023-01-19T22:44:14.708Z,18.93
2023-01-19T22:46:44.598Z,18.73
2023-01-19T22:49:15.977Z,18.23
2023-01-19T22:51:45.673Z,18.57
2023-01-19T22:54:14.164Z,19.10
2023-01-19T22:56:43.209Z,19.20
2023-01-19T22:59:11.587Z,18.67
2023-01-19T23:01:44.424Z,19.20
2023-01-19T23:04:17.623Z,20.10
2023-01-19T23:06:50.453Z,21.00
2023-01-19T23:09:19.806Z,19.67
2023-01-19T23:11:52.981Z,21.03
2023-01-19T23:14:23.762Z,19.73
2023-01-19T23:16:53.783Z,20.37
2023-01-19T23:19:22.258Z,20.57
2023-01-19T23:21:53.317Z,21.27
2023-01-19T23:24:21.807Z,21.63
2023-01-19T23:26:50.767Z,20.93
2023-01-19T23:29:19.699Z,19.60
2023-01-19T23:31:50.610Z,21.17
2023-01-19T23:34:20.400Z,20.10
2023-01-19T23:36:48.789Z,21.77
2023-01-19T23:39:19.678Z,21.17
2023-01-19T23:41:48.480Z,20.70
2023-01-19T23:44:18.174Z,20.47
2023-01-19T23:46:46.937Z,21.40
2023-01-19T23:49:15.634Z,21.53
2023-01-19T23:51:45.432Z,20.53
2023-01-19T23:54:13.894Z,20.93
2023-01-19T23:56:43.182Z,20.77
2023-01-19T23:59:14.491Z,22.60
